Time;durP1;ratioP1;P1;durP2;ratioP2;P2;SDS_P1;SDS_P2;PMS_P1;PMS_P2;Temp;Humidity;BMP_temperature;BMP_pressure;BME280_temperature;BME280_humidity;BME280_pressure;Samples;Min_cycle;Max_cycle;Signal;HPM_P1;HPM_P2
2024/02/09 00:00:31;;;;;;;20.88;4.93;;;9.90;99.90;;;;;;5050976;28;20063;-47
2024/02/09 00:03:00;;;;;;;16.48;4.55;;;9.80;99.90;;;;;;5050106;28;20033;-48
2024/02/09 00:05:29;;;;;;;19.00;5.05;;;9.80;99.90;;;;;;5053266;28;20041;-47
2024/02/09 00:08:04;;;;;;;18.50;5.43;;;9.80;99.90;;;;;;5053288;28;20528;-48
2024/02/09 00:10:36;;;;;;;16.38;4.63;;;9.80;99.90;;;;;;5048945;28;20466;-47
2024/02/09 00:13:04;;;;;;;;;;;9.80;99.90;;;;;;5048388;28;20156;-51
2024/02/09 00:15:33;;;;;;;10.32;4.10;;;9.80;99.90;;;;;;5047623;28;19932;-50
2024/02/09 00:18:02;;;;;;;18.42;5.75;;;9.80;99.90;;;;;;5047147;28;20110;-50
2024/02/09 00:20:31;;;;;;;14.07;4.28;;;9.70;99.90;;;;;;5051166;28;20438;-51
2024/02/09 00:22:58;;;;;;;17.27;4.88;;;9.80;99.90;;;;;;5048698;28;20033;-49
2024/02/09 00:25:26;;;;;;;13.77;4.80;;;9.80;99.90;;;;;;5048611;28;20076;-51
2024/02/09 00:27:54;;;;;;;12.93;4.18;;;9.80;99.90;;;;;;5048624;28;20124;-51
2024/02/09 00:30:21;;;;;;;17.17;4.38;;;9.80;99.90;;;;;;5047739;28;20212;-44
2024/02/09 00:32:51;;;;;;;14.70;4.40;;;9.80;99.90;;;;;;5047448;28;20037;-47
2024/02/09 00:35:18;;;;;;;13.68;4.13;;;9.80;99.90;;;;;;5053420;28;20052;-50
2024/02/09 00:37:47;;;;;;;14.35;4.50;;;9.80;99.90;;;;;;5049177;28;20055;-48
2024/02/09 00:40:15;;;;;;;15.65;3.83;;;9.80;99.90;;;;;;5047240;28;20495;-48
2024/02/09 00:42:43;;;;;;;17.13;4.20;;;9.80;99.90;;;;;;5053572;28;20545;-48
2024/02/09 00:45:12;;;;;;;13.02;4.22;;;9.90;99.90;;;;;;5049199;28;20548;-51
2024/02/09 00:47:39;;;;;;;13.75;4.50;;;9.80;99.90;;;;;;5055199;28;20056;-56
2024/02/09 00:50:10;;;;;;;14.55;4.18;;;9.80;99.90;;;;;;5050098;28;20060;-47
2024/02/09 00:52:37;;;;;;;15.13;4.38;;;9.90;99.90;;;;;;5050530;28;20112;-50
2024/02/09 00:55:05;;;;;;;15.68;4.30;;;9.80;99.90;;;;;;5052680;28;20098;-52
2024/02/09 00:57:32;;;;;;;16.17;4.22;;;9.90;99.90;;;;;;5048506;28;20083;-44
2024/02/09 00:59:59;;;;;;;14.52;4.75;;;9.80;99.90;;;;;;5051638;28;20136;-52
2024/02/09 01:02:29;;;;;;;15.82;4.40;;;9.80;99.90;;;;;;5050789;28;20041;-49
2024/02/09 01:04:56;;;;;;;14.95;4.30;;;9.80;99.90;;;;;;5052343;28;20518;-49
2024/02/09 01:07:24;;;;;;;12.90;4.25;;;9.80;99.90;;;;;;5051363;28;20047;-53
2024/02/09 01:09:51;;;;;;;20.05;4.25;;;9.90;99.90;;;;;;5053166;28;20057;-50
2024/02/09 02:46:13;;;;;;;13.73;3.83;;;9.70;99.90;;;;;;5052167;28;20106;-49
2024/02/09 03:05:26;;;;;;;13.57;4.45;;;9.70;99.90;;;;;;5047087;28;20182;-49
2024/02/09 03:07:58;;;;;;;10.02;3.92;;;9.70;99.90;;;;;;5053700;28;20151;-49
2024/02/09 03:10:29;;;;;;;15.77;4.25;;;9.70;99.90;;;;;;5053927;28;20518;-49
2024/02/09 03:12:56;;;;;;;12.82;3.88;;;9.70;99.90;;;;;;5052758;28;20064;-47
2024/02/09 03:15:23;;;;;;;12.30;3.53;;;9.70;99.90;;;;;;5051292;28;20461;-47
2024/02/09 03:17:53;;;;;;;13.02;3.80;;;9.70;99.90;;;;;;5053309;28;20077;-49
2024/02/09 03:20:24;;;;;;;11.00;3.63;;;9.70;99.90;;;;;;5054038;28;20040;-44
2024/02/09 03:22:52;;;;;;;10.15;3.35;;;9.70;99.90;;;;;;5056034;28;20568;-49
2024/02/09 03:25:21;;;;;;;8.75;3.33;;;9.70;99.90;;;;;;5054950;28;20045;-49
2024/02/09 03:27:49;;;;;;;10.60;3.42;;;9.70;99.90;;;;;;5051196;28;20540;-49
2024/02/09 03:30:17;;;;;;;10.10;3.67;;;9.70;99.90;;;;;;5053521;28;20049;-49
2024/02/09 03:32:44;;;;;;;10.90;2.83;;;9.80;99.90;;;;;;5051310;28;20048;-48
2024/02/09 03:35:14;;;;;;;6.95;2.90;;;9.80;99.90;;;;;;5053143;28;20083;-49
2024/02/09 03:37:44;;;;;;;14.00;3.17;;;9.80;99.90;;;;;;5054007;28;20055;-50
2024/02/09 03:40:13;;;;;;;14.50;3.33;;;9.80;99.90;;;;;;5048226;28;20428;-50
2024/02/09 03:42:41;;;;;;;11.55;3.08;;;9.80;99.90;;;;;;5048340;28;20047;-52
2024/02/09 03:45:08;;;;;;;9.50;2.70;;;9.80;99.90;;;;;;5048222;28;20121;-48
2024/02/09 03:47:35;;;;;;;10.18;3.33;;;9.80;99.90;;;;;;5051171;28;20138;-48
2024/02/09 03:50:04;;;;;;;8.63;3.08;;;9.80;99.90;;;;;;5054823;28;20049;-47
2024/02/09 03:52:31;;;;;;;14.73;3.75;;;9.80;99.90;;;;;;5053394;28;20052;-47
2024/02/09 03:54:59;;;;;;;9.70;3.40;;;9.90;99.90;;;;;;5052845;28;20032;-52
2024/02/09 03:57:28;;;;;;;8.95;2.85;;;9.80;99.90;;;;;;5051091;28;20126;-48
2024/02/09 03:59:55;;;;;;;13.27;3.22;;;9.80;99.90;;;;;;5056213;28;20152;-52
2024/02/09 04:02:22;;;;;;;8.98;3.03;;;9.80;99.90;;;;;;5051824;28;20405;-51
2024/02/09 04:04:49;;;;;;;13.65;2.80;;;9.80;99.90;;;;;;5052158;28;20045;-45
2024/02/09 04:07:23;;;;;;;13.02;3.13;;;9.80;99.90;;;;;;5049730;28;20037;-47
2024/02/09 04:09:50;;;;;;;12.30;2.58;;;9.80;99.90;;;;;;5053410;28;20056;-53
2024/02/09 04:12:37;;;;;;;9.00;2.65;;;9.80;99.90;;;;;;5048728;28;20032;-45
2024/02/09 04:15:05;;;;;;;10.02;3.47;;;9.80;99.90;;;;;;5054600;28;20033;-47
2024/02/09 04:17:32;;;;;;;10.02;3.13;;;9.80;99.90;;;;;;5052838;28;20417;-51
2024/02/09 04:19:59;;;;;;;9.43;3.35;;;9.70;99.90;;;;;;5049979;28;20095;-46
2024/02/09 04:22:27;;;;;;;8.38;3.15;;;9.70;99.90;;;;;;5049959;28;20415;-46
2024/02/09 04:24:56;;;;;;;13.35;3.08;;;9.70;99.90;;;;;;5049167;28;20048;-49
2024/02/09 04:27:23;;;;;;;12.57;3.30;;;9.70;99.90;;;;;;5048052;28;20154;-53
2024/02/09 04:29:50;;;;;;;8.75;2.90;;;9.70;99.90;;;;;;5051965;28;20047;-44
2024/02/09 04:32:17;;;;;;;9.50;3.03;;;9.70;99.90;;;;;;5048466;28;20069;-48
2024/02/09 04:34:44;;;;;;;10.40;3.17;;;9.70;99.90;;;;;;5052415;28;20049;-47
2024/02/09 04:37:12;;;;;;;7.45;2.67;;;9.70;99.90;;;;;;5048356;28;20353;-51
2024/02/09 04:39:39;;;;;;;9.90;2.97;;;9.70;99.90;;;;;;5053086;28;20053;-49
2024/02/09 04:42:06;;;;;;;10.55;3.92;;;9.70;99.90;;;;;;5043975;28;20451;-50
2024/02/09 04:44:33;;;;;;;9.68;3.20;;;9.60;99.90;;;;;;5050090;28;20076;-51
2024/02/09 04:47:00;;;;;;;13.73;3.92;;;9.70;99.90;;;;;;5050118;28;20098;-47
2024/02/09 04:49:27;;;;;;;9.52;2.92;;;9.70;99.90;;;;;;5050950;28;20049;-54
2024/02/09 04:51:54;;;;;;;13.30;3.92;;;9.70;99.90;;;;;;5052830;28;20056;-48
2024/02/09 04:54:21;;;;;;;11.13;3.42;;;9.70;99.90;;;;;;5050565;28;20065;-49
2024/02/09 04:56:48;;;;;;;10.70;3.70;;;9.80;99.90;;;;;;5051306;28;20051;-49
2024/02/09 04:59:15;;;;;;;10.18;3.88;;;9.70;99.90;;;;;;5051306;28;20084;-51
2024/02/09 05:01:42;;;;;;;8.93;3.58;;;9.80;99.90;;;;;;5047593;28;20197;-48
2024/02/09 05:04:10;;;;;;;11.18;4.15;;;9.80;99.90;;;;;;5042903;28;20123;-48
2024/02/09 05:06:38;;;;;;;11.43;3.67;;;9.70;99.90;;;;;;5048551;28;20460;-53
2024/02/09 05:09:08;;;;;;;14.52;3.90;;;9.70;99.90;;;;;;5050641;28;20061;-55
2024/02/09 05:11:37;;;;;;;11.50;3.53;;;9.60;99.90;;;;;;5052319;28;20459;-47
2024/02/09 05:14:05;;;;;;;16.63;3.95;;;9.60;99.90;;;;;;5046007;28;20067;-51
2024/02/09 05:16:33;;;;;;;13.60;4.10;;;9.70;99.90;;;;;;5053746;28;20070;-53
2024/02/09 05:19:03;;;;;;;13.20;4.28;;;9.70;99.90;;;;;;5045629;28;20155;-49
2024/02/09 05:21:34;;;;;;;12.73;3.85;;;9.70;99.90;;;;;;5051406;28;20630;-50
2024/02/09 05:24:03;;;;;;;12.18;3.60;;;9.80;99.90;;;;;;5047454;28;20041;-47
2024/02/09 05:26:30;;;;;;;10.43;3.40;;;9.80;99.90;;;;;;5051370;28;20198;-49
2024/02/09 05:28:57;;;;;;;16.70;3.85;;;9.80;99.90;;;;;;5048416;28;20049;-45
2024/02/09 05:31:25;;;;;;;9.13;3.40;;;9.80;99.90;;;;;;5050378;28;20064;-50
2024/02/09 05:33:53;;;;;;;10.77;3.13;;;9.70;99.90;;;;;;5050646;28;20064;-47
2024/02/09 05:36:21;;;;;;;11.43;3.28;;;9.70;99.90;;;;;;5051082;28;20053;-51
2024/02/09 05:38:50;;;;;;;8.30;3.53;;;9.60;99.90;;;;;;5050891;28;20056;-53
2024/02/09 05:41:18;;;;;;;9.65;3.20;;;9.60;99.90;;;;;;5048262;28;20140;-47
2024/02/09 05:43:54;;;;;;;13.65;3.70;;;9.70;99.90;;;;;;5047858;28;20531;-48
2024/02/09 05:46:21;;;;;;;10.30;3.65;;;9.60;99.90;;;;;;5047302;28;20084;-49
2024/02/09 05:48:49;;;;;;;8.52;2.80;;;9.60;99.90;;;;;;5048175;28;20036;-51
2024/02/09 05:51:18;;;;;;;9.55;3.33;;;9.60;99.90;;;;;;5047257;28;20080;-50
2024/02/09 05:53:48;;;;;;;8.82;3.35;;;9.60;99.90;;;;;;5049316;28;20041;-55
2024/02/09 05:56:25;;;;;;;9.50;3.60;;;9.60;99.90;;;;;;5050904;28;20462;-49
2024/02/09 05:58:56;;;;;;;11.88;3.67;;;9.60;99.90;;;;;;5039592;28;20245;-45
2024/02/09 06:01:30;;;;;;;9.45;3.53;;;9.60;99.90;;;;;;5048005;28;20048;-53
2024/02/09 06:03:58;;;;;;;7.95;3.67;;;9.60;99.90;;;;;;5045731;28;20041;-48
2024/02/09 06:06:26;;;;;;;10.50;3.35;;;9.60;99.90;;;;;;5050213;28;20531;-45
2024/02/09 06:08:53;;;;;;;12.50;3.45;;;9.60;99.90;;;;;;5057211;28;20555;-51
2024/02/09 06:11:20;;;;;;;8.98;3.20;;;9.70;99.90;;;;;;5056563;28;20098;-47
2024/02/09 06:13:47;;;;;;;8.85;3.45;;;9.70;99.90;;;;;;5052261;28;20419;-45
2024/02/09 06:16:16;;;;;;;12.10;3.10;;;9.70;99.90;;;;;;5055248;28;20440;-49
2024/02/09 06:18:45;;;;;;;11.23;3.55;;;9.80;99.90;;;;;;5050416;28;20041;-49
2024/02/09 06:21:14;;;;;;;7.45;2.72;;;9.80;99.90;;;;;;5056866;28;20056;-47
2024/02/09 06:23:44;;;;;;;6.82;2.65;;;9.80;99.90;;;;;;5051758;28;20053;-50
2024/02/09 06:26:11;;;;;;;13.18;2.85;;;9.80;99.90;;;;;;5054712;28;20047;-49
2024/02/09 06:28:38;;;;;;;8.00;2.85;;;9.90;99.90;;;;;;5050293;28;20041;-47
2024/02/09 06:31:05;;;;;;;8.43;3.17;;;9.80;99.90;;;;;;5054964;28;20140;-47
2024/02/09 06:33:33;;;;;;;6.65;2.58;;;9.90;99.90;;;;;;5054223;28;20052;-49
2024/02/09 06:36:00;;;;;;;8.32;2.90;;;9.90;99.90;;;;;;5055636;28;20118;-49
2024/02/09 06:38:27;;;;;;;9.20;3.45;;;9.90;99.90;;;;;;5050843;28;20045;-50
2024/02/09 06:40:53;;;;;;;8.30;2.85;;;9.90;99.90;;;;;;5051088;28;20525;-49
2024/02/09 06:43:22;;;;;;;8.85;2.53;;;9.90;99.90;;;;;;5052885;28;20044;-51
2024/02/09 06:45:50;;;;;;;6.15;2.45;;;9.90;99.90;;;;;;5053312;28;20044;-49
2024/02/09 06:48:17;;;;;;;7.15;2.92;;;9.90;99.90;;;;;;5051551;28;20126;-49
2024/02/09 06:50:44;;;;;;;10.20;2.47;;;10.00;99.90;;;;;;5054122;28;20045;-50
2024/02/09 06:53:11;;;;;;;10.68;2.42;;;10.00;99.90;;;;;;5049613;28;20131;-50
2024/02/09 06:55:38;;;;;;;7.03;2.78;;;10.00;99.90;;;;;;5055674;28;20128;-46
2024/02/09 06:58:05;;;;;;;9.27;2.92;;;10.10;99.90;;;;;;5048084;28;20055;-51
2024/02/09 07:00:36;;;;;;;6.97;2.35;;;10.00;99.90;;;;;;5029871;28;20051;-48
2024/02/09 07:03:04;;;;;;;5.65;2.60;;;10.10;99.90;;;;;;5051349;28;20041;-47
2024/02/09 07:05:34;;;;;;;5.97;2.13;;;10.10;99.90;;;;;;5048673;28;20387;-52
2024/02/09 07:08:02;;;;;;;6.43;1.95;;;10.10;99.90;;;;;;5053710;28;20036;-51
2024/02/09 07:10:30;;;;;;;6.95;2.22;;;10.20;99.90;;;;;;5051438;28;20080;-49
2024/02/09 07:12:57;;;;;;;11.35;5.40;;;10.30;99.90;;;;;;5052771;28;20040;-49
2024/02/09 07:15:24;;;;;;;4.40;1.65;;;10.20;99.90;;;;;;5052645;28;20135;-50
2024/02/09 07:17:54;;;;;;;5.68;2.00;;;10.30;99.90;;;;;;5050415;28;20041;-51
2024/02/09 07:20:24;;;;;;;4.07;1.83;;;10.30;99.90;;;;;;5050222;28;20491;-51
2024/02/09 07:22:52;;;;;;;4.45;1.70;;;10.30;99.90;;;;;;5048299;28;20113;-50
2024/02/09 07:25:19;;;;;;;4.40;1.85;;;10.20;99.90;;;;;;5052122;28;20106;-53
2024/02/09 07:27:46;;;;;;;5.50;2.10;;;10.30;99.90;;;;;;5049374;28;20578;-47
2024/02/09 07:30:15;;;;;;;8.68;2.40;;;10.30;99.90;;;;;;5045730;28;20045;-51
2024/02/09 07:32:42;;;;;;;3.72;1.70;;;10.30;99.90;;;;;;5052870;28;20075;-50
2024/02/09 07:35:10;;;;;;;5.70;2.35;;;10.30;99.90;;;;;;5050339;28;20044;-43
2024/02/09 07:37:38;;;;;;;4.70;1.90;;;10.30;99.90;;;;;;5053216;28;20048;-50
2024/02/09 07:40:08;;;;;;;5.50;2.17;;;10.30;99.90;;;;;;5049664;28;20632;-48
2024/02/09 07:42:35;;;;;;;5.65;1.88;;;10.30;99.90;;;;;;5052268;28;20037;-45
2024/02/09 07:45:03;;;;;;;9.27;2.00;;;10.30;99.90;;;;;;5048884;28;20037;-49
2024/02/09 07:47:31;;;;;;;4.13;1.98;;;10.30;99.90;;;;;;5051438;28;20398;-50
2024/02/09 07:49:58;;;;;;;7.45;1.92;;;10.30;99.90;;;;;;5049536;28;20045;-49
2024/02/09 07:52:28;;;;;;;5.85;1.70;;;10.30;99.90;;;;;;5050869;28;20037;-50
2024/02/09 07:54:56;;;;;;;5.68;1.85;;;10.30;99.90;;;;;;5052972;28;20112;-44
2024/02/09 07:57:25;;;;;;;5.45;1.80;;;10.40;99.90;;;;;;5049888;28;20057;-46
2024/02/09 07:59:52;;;;;;;6.22;2.25;;;10.40;99.90;;;;;;5051564;28;20053;-47
2024/02/09 08:02:19;;;;;;;3.90;1.60;;;10.50;99.90;;;;;;5051412;28;20092;-46
2024/02/09 08:04:46;;;;;;;3.97;1.45;;;10.40;99.90;;;;;;5059537;28;20048;-46
2024/02/09 08:07:15;;;;;;;5.18;1.85;;;10.40;99.90;;;;;;5057956;28;20524;-50
2024/02/09 08:09:42;;;;;;;3.83;1.67;;;10.40;99.90;;;;;;5053108;28;20052;-50
2024/02/09 08:12:09;;;;;;;4.63;1.63;;;10.40;99.90;;;;;;5052944;28;20513;-48
2024/02/09 08:14:39;;;;;;;5.45;1.60;;;10.40;99.90;;;;;;5052007;28;20040;-47
2024/02/09 08:17:08;;;;;;;6.97;1.73;;;10.50;99.90;;;;;;5052154;28;20049;-45
2024/02/09 08:19:35;;;;;;;5.07;1.70;;;10.50;99.90;;;;;;5051479;28;20052;-52
2024/02/09 08:22:02;;;;;;;4.70;2.05;;;10.50;99.90;;;;;;5051676;28;20068;-49
2024/02/09 08:24:29;;;;;;;3.10;1.63;;;10.60;99.90;;;;;;5052412;28;20076;-52
2024/02/09 08:26:56;;;;;;;4.45;1.63;;;10.60;99.90;;;;;;5045647;28;20101;-47
2024/02/09 08:29:23;;;;;;;5.40;2.00;;;10.60;99.90;;;;;;5054396;28;20127;-46
2024/02/09 08:31:50;;;;;;;13.60;2.25;;;10.50;99.90;;;;;;5047080;28;20450;-44
2024/02/09 08:34:19;;;;;;;9.45;2.10;;;10.50;99.90;;;;;;5051824;28;20052;-52
2024/02/09 08:36:46;;;;;;;7.45;2.10;;;10.60;99.90;;;;;;5049508;28;20500;-49
2024/02/09 08:39:13;;;;;;;3.83;1.70;;;10.60;99.90;;;;;;5053729;28;20045;-46
2024/02/09 08:41:40;;;;;;;10.73;2.40;;;10.60;99.90;;;;;;5051343;28;20060;-49
2024/02/09 08:44:07;;;;;;;4.18;2.10;;;10.60;99.90;;;;;;5053849;28;20208;-51
2024/02/09 08:46:35;;;;;;;5.60;1.90;;;10.60;99.90;;;;;;5051003;28;20055;-46
2024/02/09 08:49:02;;;;;;;6.18;2.13;;;10.60;99.90;;;;;;5031870;28;20033;-49
2024/02/09 08:51:29;;;;;;;5.95;2.00;;;10.60;99.90;;;;;;5052802;28;20048;-47
2024/02/09 08:53:56;;;;;;;6.03;2.15;;;10.60;99.90;;;;;;5030926;28;20064;-53
2024/02/09 08:56:23;;;;;;;5.30;2.00;;;10.60;99.90;;;;;;5051566;28;20053;-53
2024/02/09 08:58:50;;;;;;;3.63;1.70;;;10.60;99.90;;;;;;5041428;28;20080;-51
2024/02/09 09:01:17;;;;;;;4.10;1.60;;;10.60;99.90;;;;;;5047874;28;20106;-54
2024/02/09 09:03:44;;;;;;;3.65;1.52;;;10.60;99.90;;;;;;5050510;28;20037;-50
2024/02/09 09:06:13;;;;;;;4.35;1.80;;;10.70;99.90;;;;;;5045709;28;20037;-52
2024/02/09 09:08:39;;;;;;;6.40;1.83;;;10.70;99.90;;;;;;5054725;28;20036;-50
2024/02/09 09:11:06;;;;;;;4.28;1.70;;;10.70;99.90;;;;;;5042810;28;20124;-52
2024/02/09 09:13:33;;;;;;;4.90;1.90;;;10.70;99.90;;;;;;5031489;28;20072;-51
2024/02/09 09:16:00;;;;;;;7.07;2.42;;;10.80;99.90;;;;;;5049188;28;20099;-51
2024/02/09 09:18:29;;;;;;;6.30;2.63;;;10.80;99.90;;;;;;5049580;28;20053;-50
2024/02/09 09:20:56;;;;;;;7.25;2.20;;;10.80;99.90;;;;;;5051576;28;20467;-46
2024/02/09 09:23:23;;;;;;;7.32;2.55;;;10.80;99.90;;;;;;5048095;28;20567;-48
2024/02/09 09:25:50;;;;;;;5.03;1.88;;;10.90;99.90;;;;;;5050403;28;20068;-49
2024/02/09 09:28:18;;;;;;;6.60;2.05;;;10.90;99.90;;;;;;5047630;28;20284;-52
2024/02/09 09:30:48;;;;;;;6.72;1.95;;;10.90;99.90;;;;;;5049651;28;20041;-47
2024/02/09 09:33:15;;;;;;;4.38;2.30;;;11.00;99.90;;;;;;5047563;28;20154;-50
2024/02/09 09:35:42;;;;;;;6.55;2.50;;;11.10;99.90;;;;;;5052629;28;20512;-50
2024/02/09 09:38:10;;;;;;;5.35;2.05;;;11.20;99.90;;;;;;5051890;28;20095;-52
2024/02/09 09:40:39;;;;;;;5.03;1.98;;;11.20;99.90;;;;;;5049219;28;20051;-49
2024/02/09 09:43:08;;;;;;;6.38;2.03;;;11.20;99.90;;;;;;5051434;28;20111;-50
2024/02/09 09:45:35;;;;;;;5.53;2.63;;;11.30;99.90;;;;;;5049850;28;20047;-49
2024/02/09 09:48:06;;;;;;;6.80;2.63;;;11.40;99.90;;;;;;5051976;28;20052;-50
2024/02/09 09:50:35;;;;;;;7.60;2.65;;;11.50;99.90;;;;;;5052215;28;20048;-47
2024/02/09 09:53:09;;;;;;;6.53;2.22;;;11.60;99.90;;;;;;5045850;28;20538;-50
2024/02/09 09:55:37;;;;;;;10.40;2.97;;;11.60;99.90;;;;;;5053257;28;20136;-50
2024/02/09 09:58:05;;;;;;;11.35;3.40;;;11.80;99.90;;;;;;5043890;28;20064;-51
2024/02/09 10:00:34;;;;;;;5.72;2.92;;;11.80;99.90;;;;;;5048771;28;20107;-47
2024/02/09 10:03:04;;;;;;;5.20;2.55;;;11.80;99.90;;;;;;5046668;28;20037;-50
2024/02/09 10:05:31;;;;;;;7.60;3.33;;;11.90;99.90;;;;;;5046975;28;20075;-47
2024/02/09 10:07:59;;;;;;;8.13;3.05;;;11.90;99.90;;;;;;5051841;28;20053;-49
2024/02/09 10:10:28;;;;;;;7.30;2.70;;;12.00;99.90;;;;;;5051620;28;20045;-49
2024/02/09 10:13:11;;;;;;;5.65;2.50;;;12.10;99.90;;;;;;5047699;28;20045;-47
2024/02/09 10:15:41;;;;;;;4.97;2.42;;;12.20;99.90;;;;;;5044852;28;20105;-49
2024/02/09 10:18:11;;;;;;;7.68;2.40;;;12.20;99.90;;;;;;5050279;28;20052;-46
2024/02/09 10:20:42;;;;;;;8.38;4.07;;;12.20;99.90;;;;;;5047886;28;20041;-51
2024/02/09 10:23:09;;;;;;;5.97;2.58;;;12.20;99.90;;;;;;5041161;28;20466;-52
2024/02/09 10:25:41;;;;;;;4.53;2.13;;;12.10;99.90;;;;;;5047940;28;20040;-50
2024/02/09 10:28:11;;;;;;;5.32;1.98;;;12.10;99.90;;;;;;5047241;28;20052;-51
2024/02/09 10:30:38;;;;;;;4.60;2.00;;;12.20;99.90;;;;;;5048491;28;20037;-54
2024/02/09 10:33:10;;;;;;;5.45;2.25;;;12.20;99.90;;;;;;5047642;28;20085;-46
2024/02/09 10:35:37;;;;;;;6.10;2.50;;;12.20;99.90;;;;;;5047426;28;20165;-49
2024/02/09 10:38:04;;;;;;;5.90;2.58;;;12.40;99.90;;;;;;5048406;28;20049;-50
2024/02/09 10:40:33;;;;;;;8.85;2.30;;;12.50;99.90;;;;;;5046391;28;20110;-47
2024/02/09 10:43:04;;;;;;;8.55;2.83;;;12.60;99.90;;;;;;5048584;28;20140;-50
2024/02/09 10:45:32;;;;;;;7.55;3.33;;;12.80;99.90;;;;;;5048120;28;20370;-44
2024/02/09 10:48:02;;;;;;;8.73;3.17;;;13.00;99.90;;;;;;5050225;28;20481;-53
2024/02/09 10:50:32;;;;;;;6.47;2.67;;;13.10;99.90;;;;;;5051199;28;20473;-52
2024/02/09 10:53:03;;;;;;;8.18;2.85;;;13.30;99.90;;;;;;5047164;28;20128;-46
2024/02/09 10:55:38;;;;;;;6.00;2.83;;;13.60;99.90;;;;;;5056543;28;20660;-50
2024/02/09 10:58:08;;;;;;;5.00;2.50;;;13.70;99.90;;;;;;5047419;28;20465;-49
2024/02/09 11:00:38;;;;;;;6.90;2.60;;;13.80;99.90;;;;;;5051392;28;20045;-50
2024/02/09 11:03:06;;;;;;;5.22;2.60;;;14.10;99.90;;;;;;5045545;28;20044;-51
2024/02/09 11:05:35;;;;;;;6.00;2.60;;;14.20;99.90;;;;;;5051734;28;20140;-49
2024/02/09 11:08:03;;;;;;;4.50;2.17;;;14.40;99.90;;;;;;5049973;28;20277;-49
2024/02/09 11:10:31;;;;;;;3.88;2.22;;;14.60;99.90;;;;;;5049297;28;20041;-53
2024/02/09 11:12:59;;;;;;;7.22;2.35;;;14.80;99.90;;;;;;5051149;28;20049;-50
2024/02/09 11:15:33;;;;;;;7.85;2.80;;;14.80;99.90;;;;;;5049991;28;20565;-50
2024/02/09 11:18:01;;;;;;;17.08;9.80;;;15.00;99.90;;;;;;5051957;28;20144;-44
2024/02/09 11:20:32;;;;;;;6.18;2.63;;;14.70;99.90;;;;;;5051785;28;20048;-48
2024/02/09 11:23:00;;;;;;;8.10;2.83;;;14.90;99.90;;;;;;5049214;28;20091;-48
2024/02/09 11:25:28;;;;;;;4.70;2.25;;;14.90;99.90;;;;;;5051450;28;20037;-49
2024/02/09 11:27:56;;;;;;;4.95;2.30;;;14.90;99.90;;;;;;5046586;28;20033;-51
2024/02/09 11:30:23;;;;;;;5.30;2.10;;;15.20;99.90;;;;;;5052679;28;20118;-50
2024/02/09 11:32:50;;;;;;;8.45;2.33;;;15.50;99.90;;;;;;5051000;28;20063;-51
2024/02/09 11:35:18;;;;;;;5.10;2.30;;;16.00;99.90;;;;;;5047237;28;20044;-46
2024/02/09 11:37:47;;;;;;;4.35;2.20;;;16.30;99.90;;;;;;5054066;28;20110;-47
2024/02/09 11:40:16;;;;;;;4.45;2.65;;;16.40;99.90;;;;;;5048416;28;20059;-53
2024/02/09 11:42:44;;;;;;;5.70;2.58;;;16.70;99.90;;;;;;5053668;28;20045;-52
2024/02/09 11:45:12;;;;;;;4.80;2.58;;;16.50;99.90;;;;;;5049338;28;20294;-51
2024/02/09 11:47:39;;;;;;;4.63;2.42;;;16.60;99.90;;;;;;5050201;28;20045;-47
2024/02/09 11:50:19;;;;;;;5.95;2.40;;;16.90;99.90;;;;;;5051439;28;20037;-46
2024/02/09 11:52:46;;;;;;;3.72;2.40;;;16.80;99.90;;;;;;5048330;28;20118;-48
2024/02/09 11:55:39;;;;;;;4.88;2.42;;;16.80;99.90;;;;;;5043484;28;20040;-47
2024/02/09 11:58:07;;;;;;;5.07;2.72;;;16.60;99.90;;;;;;5046887;28;20416;-48
2024/02/09 12:00:36;;;;;;;3.80;2.10;;;16.90;99.90;;;;;;5048083;28;20059;-50
2024/02/09 12:03:04;;;;;;;5.03;2.80;;;16.90;99.90;;;;;;5047470;28;20048;-50
2024/02/09 12:05:32;;;;;;;5.80;2.40;;;16.70;99.90;;;;;;5044616;28;20049;-47
2024/02/09 12:07:59;;;;;;;5.75;2.55;;;16.30;99.90;;;;;;5052846;28;20397;-50
2024/02/09 12:10:27;;;;;;;6.50;2.80;;;16.30;99.90;;;;;;5049656;28;20033;-45
2024/02/09 12:12:54;;;;;;;5.25;3.13;;;16.50;99.90;;;;;;5047246;28;20060;-51
2024/02/09 12:15:21;;;;;;;6.90;3.13;;;16.60;99.90;;;;;;5049897;28;20418;-50
2024/02/09 12:17:48;;;;;;;5.15;2.65;;;16.20;99.90;;;;;;5052911;28;20053;-52
2024/02/09 12:20:17;;;;;;;5.43;2.70;;;16.30;99.90;;;;;;5052100;28;20311;-48
2024/02/09 12:22:46;;;;;;;4.65;2.67;;;15.90;99.90;;;;;;5055578;28;20147;-47
2024/02/09 12:25:16;;;;;;;9.75;5.47;;;15.70;99.90;;;;;;5054709;28;20049;-50
2024/02/09 12:27:44;;;;;;;5.63;2.67;;;15.30;99.90;;;;;;5051396;28;20052;-49
2024/02/09 12:30:12;;;;;;;5.80;2.70;;;15.20;99.90;;;;;;5052534;28;20141;-53
2024/02/09 12:32:40;;;;;;;4.22;2.70;;;15.30;99.90;;;;;;5051280;28;20132;-46
2024/02/09 12:35:10;;;;;;;4.57;2.72;;;15.40;99.90;;;;;;5042751;28;20130;-51
2024/02/09 12:37:37;;;;;;;6.43;2.80;;;15.90;99.90;;;;;;5052045;28;20118;-49
2024/02/09 12:40:06;;;;;;;6.38;2.75;;;16.20;99.90;;;;;;5045683;28;20530;-47
2024/02/09 12:42:33;;;;;;;4.63;2.95;;;16.30;99.90;;;;;;5053137;28;20336;-47
2024/02/09 12:45:02;;;;;;;5.93;3.03;;;16.50;99.90;;;;;;5041198;28;20044;-53
2024/02/09 12:47:31;;;;;;;4.22;2.78;;;16.60;99.90;;;;;;5048709;28;20083;-48
2024/02/09 12:49:58;;;;;;;6.55;3.22;;;16.40;99.90;;;;;;5045904;28;20029;-50
2024/02/09 12:52:31;;;;;;;5.57;3.20;;;16.30;99.90;;;;;;5046053;28;20045;-51
2024/02/09 12:54:58;;;;;;;12.35;6.35;;;15.80;99.90;;;;;;5047579;28;20045;-49
2024/02/09 12:57:26;;;;;;;5.00;2.67;;;15.80;99.90;;;;;;5047064;28;20033;-46
2024/02/09 12:59:53;;;;;;;5.63;3.17;;;15.80;99.90;;;;;;5050139;28;20128;-48
2024/02/09 13:02:22;;;;;;;4.65;2.70;;;15.70;99.90;;;;;;5048201;28;20045;-48
2024/02/09 13:04:49;;;;;;;7.32;2.88;;;15.60;99.90;;;;;;5051418;28;20048;-49
2024/02/09 13:07:17;;;;;;;6.35;2.80;;;15.80;99.90;;;;;;5049412;28;20123;-46
2024/02/09 13:09:44;;;;;;;4.40;2.78;;;16.10;99.90;;;;;;5051314;28;20116;-48
2024/02/09 13:12:11;;;;;;;5.82;2.35;;;16.20;99.90;;;;;;5046592;28;20500;-49
2024/02/09 13:14:39;;;;;;;6.53;3.25;;;16.60;99.90;;;;;;5046839;28;20041;-51
2024/02/09 13:17:07;;;;;;;3.03;2.35;;;17.30;99.90;;;;;;5049537;28;20048;-52
2024/02/09 13:19:34;;;;;;;7.90;3.05;;;18.50;99.90;;;;;;5048262;28;20063;-44
2024/02/09 13:22:06;;;;;;;5.20;3.30;;;19.10;99.90;;;;;;5050166;28;20118;-53
2024/02/09 13:24:33;;;;;;;;;;;19.70;99.90;;;;;;5052303;28;20453;-48
2024/02/09 13:26:59;;;;;;;7.97;3.42;;;20.00;99.90;;;;;;5044663;28;19968;-48
2024/02/09 13:29:26;;;;;;;7.00;3.60;;;19.60;99.90;;;;;;5052433;28;20128;-50
2024/02/09 13:31:54;;;;;;;5.07;3.67;;;19.80;99.90;;;;;;5044015;28;20118;-50
2024/02/09 13:34:22;;;;;;;8.80;4.10;;;19.60;99.90;;;;;;5053242;28;20377;-50
2024/02/09 13:36:49;;;;;;;6.53;4.00;;;19.30;99.90;;;;;;5045745;28;20484;-49
2024/02/09 13:39:17;;;;;;;6.20;3.83;;;18.80;99.90;;;;;;5052771;28;20135;-49
2024/02/09 13:41:44;;;;;;;7.57;4.10;;;18.20;99.90;;;;;;5047669;28;20134;-49
2024/02/09 13:44:13;;;;;;;5.93;3.92;;;17.40;99.90;;;;;;5048480;28;20470;-54
2024/02/09 13:46:41;;;;;;;23.85;16.02;;;17.00;99.90;;;;;;5030062;28;20467;-44
2024/02/09 13:49:08;;;;;;;6.40;4.00;;;16.80;99.90;;;;;;5049574;28;20496;-45
2024/02/09 13:51:35;;;;;;;5.25;3.70;;;16.70;99.90;;;;;;5048444;28;20118;-54
2024/02/09 13:54:02;;;;;;;7.55;3.67;;;16.40;99.90;;;;;;5045919;28;20040;-50
2024/02/09 13:56:29;;;;;;;7.43;3.85;;;16.00;99.90;;;;;;5048748;28;20049;-51
2024/02/09 13:58:57;;;;;;;7.22;3.45;;;15.80;99.90;;;;;;5047688;28;20402;-47
2024/02/09 14:01:24;;;;;;;6.45;3.22;;;15.50;99.90;;;;;;5045792;28;20057;-50
2024/02/09 14:03:52;;;;;;;6.60;3.30;;;15.20;99.90;;;;;;5049891;28;20442;-49
2024/02/09 14:06:19;;;;;;;9.48;4.50;;;15.10;99.90;;;;;;5048618;28;20423;-44
2024/02/09 14:08:47;;;;;;;5.70;3.47;;;15.10;99.90;;;;;;5052150;28;20439;-50
2024/02/09 14:11:14;;;;;;;8.23;3.40;;;15.10;99.90;;;;;;5049738;28;20041;-48
2024/02/09 14:13:42;;;;;;;5.18;3.25;;;15.10;99.90;;;;;;5047146;28;20102;-44
2024/02/09 14:16:09;;;;;;;6.57;3.75;;;15.10;99.90;;;;;;5043500;28;20136;-46
2024/02/09 14:18:36;;;;;;;6.40;3.20;;;15.00;99.90;;;;;;5045770;28;20497;-46
2024/02/09 14:21:05;;;;;;;6.38;3.20;;;14.80;99.90;;;;;;5049026;28;20140;-44
2024/02/09 14:23:33;;;;;;;15.35;8.80;;;14.80;99.90;;;;;;5047283;28;20065;-55
2024/02/09 14:26:00;;;;;;;4.63;3.10;;;14.60;99.90;;;;;;5052743;28;20055;-45
2024/02/09 14:28:27;;;;;;;5.20;2.78;;;14.50;99.90;;;;;;5051580;28;20127;-48
2024/02/09 14:30:56;;;;;;;6.28;3.33;;;14.40;99.90;;;;;;5054529;28;20045;-51
2024/02/09 14:33:23;;;;;;;6.65;3.10;;;14.30;99.90;;;;;;5049415;28;20204;-46
2024/02/09 14:35:50;;;;;;;6.25;2.92;;;14.30;99.90;;;;;;5046458;28;20102;-52
2024/02/09 14:38:17;;;;;;;6.35;2.78;;;14.20;99.90;;;;;;5042003;28;20045;-46
2024/02/09 14:40:44;;;;;;;5.07;3.05;;;14.00;99.90;;;;;;5052216;28;20052;-46
2024/02/09 14:43:13;;;;;;;7.00;2.88;;;14.00;99.90;;;;;;5034224;28;20049;-44